PWSweather.com
Personal Weather Stations
Station Observations
ANTHEMNP
Anthem North Parkside, Anthem, AZ 85086

Anthem North ParksideAnthem, AZ 85086

Lat: 33.876464, Lon: -112.13861199999997

Elevation: 1930

Station Type: Davis Vantage Vue with Pro 2 console

http://www.azjerry.com/ANPW/wxindex.php

High Low Average
Temperature 79.5°F26.4°C 56.6°F13.7°C 66.4°F19.1°C
Dew Point 45.9°F7.7°C 1.4°F-17.0°C 35.6°F2.0°C
Winds 17.3 mph 27.8 kmh Calm Calm 5.0 mph E8.0 kmh E
Wind Gusts 25.3 mph40.7 kmh -- 7.0 mph11.3 kmh
Humidity 55% 9% 36%
Pressure 30.10 in1019.3 mb 29.96 in1014.6 mb -
Precipitation 0.00 in0.0 mm - -
Hour Temp Dew Point Humidity Winds Wind Gusts Pressure Precip Precip Rate Daily Precip Total
12:00 AM 61.1°F16.2°C 40.7°F4.8°C 47% 4.6 mph NE7.4 kmh NE 5.8 mph9.3 kmh 29.97 in1014.9 mb - 0.00 in0.0 mm 0.00 in0.0 mm
12:10 AM 61.1°F16.2°C 40.7°F4.8°C 47% 4.6 mph N7.4 kmh N 6.9 mph11.1 kmh 29.97 in1014.9 mb - 0.00 in0.0 mm 0.00 in0.0 mm
12:15 AM 61.2°F16.2°C 40.8°F4.9°C 47% 4.6 mph N7.4 kmh N 4.6 mph7.4 kmh 29.96 in1014.6 mb - 0.00 in0.0 mm 0.00 in0.0 mm
12:20 AM 61.3°F16.3°C 40.9°F4.9°C 47% 3.5 mph N5.6 kmh N 4.6 mph7.4 kmh 29.96 in1014.6 mb - 0.00 in0.0 mm 0.00 in0.0 mm
12:25 AM 61.3°F16.3°C 40.9°F4.9°C 47% 3.5 mph N5.6 kmh N 3.5 mph5.6 kmh 29.96 in1014.6 mb - 0.00 in0.0 mm 0.00 in0.0 mm
12:30 AM 61.1°F16.2°C 40.7°F4.8°C 47% 2.3 mph NNE3.7 kmh NNE 3.5 mph5.6 kmh 29.96 in1014.6 mb - 0.00 in0.0 mm 0.00 in0.0 mm
12:35 AM 61.1°F16.2°C 40.7°F4.8°C 47% 2.3 mph NNE3.7 kmh NNE 4.6 mph7.4 kmh 29.96 in1014.6 mb - 0.00 in0.0 mm 0.00 in0.0 mm
12:40 AM 61.2°F16.2°C 40.8°F4.9°C 47% 4.6 mph N7.4 kmh N 5.8 mph9.3 kmh 29.96 in1014.6 mb - 0.00 in0.0 mm 0.00 in0.0 mm
12:45 AM 61.2°F16.2°C 40.2°F4.6°C 46% 3.5 mph NNE5.6 kmh NNE 3.5 mph5.6 kmh 29.96 in1014.6 mb - 0.00 in0.0 mm 0.00 in0.0 mm
12:50 AM 61.3°F16.3°C 40.3°F4.6°C 46% 3.5 mph N5.6 kmh N 3.5 mph5.6 kmh 29.96 in1014.6 mb - 0.00 in0.0 mm 0.00 in0.0 mm
12:55 AM 61.5°F16.4°C 40.5°F4.7°C 46% 4.6 mph N7.4 kmh N 4.6 mph7.4 kmh 29.96 in1014.6 mb - 0.00 in0.0 mm 0.00 in0.0 mm
01:00 AM 61.4°F16.3°C 40.5°F4.7°C 46% 3.5 mph N5.6 kmh N 4.6 mph7.4 kmh 29.96 in1014.6 mb - 0.00 in0.0 mm 0.00 in0.0 mm
01:10 AM 61.5°F16.4°C 40.5°F4.7°C 46% 3.5 mph N5.6 kmh N 4.6 mph7.4 kmh 29.96 in1014.6 mb - 0.00 in0.0 mm 0.00 in0.0 mm
01:15 AM 61.7°F16.5°C 40.7°F4.8°C 46% 3.5 mph N5.6 kmh N 4.6 mph7.4 kmh 29.96 in1014.6 mb - 0.00 in0.0 mm 0.00 in0.0 mm
01:20 AM 61.7°F16.5°C 40.7°F4.8°C 46% 4.6 mph NNE7.4 kmh NNE 4.6 mph7.4 kmh 29.96 in1014.6 mb - 0.00 in0.0 mm 0.00 in0.0 mm
01:25 AM 61.4°F16.3°C 40.4°F4.7°C 46% 3.5 mph N5.6 kmh N 4.6 mph7.4 kmh 29.96 in1014.6 mb - 0.00 in0.0 mm 0.00 in0.0 mm
01:30 AM 61.3°F16.3°C 40.3°F4.6°C 46% 3.5 mph NNW5.6 kmh NNW 4.6 mph7.4 kmh 29.96 in1014.6 mb - 0.00 in0.0 mm 0.00 in0.0 mm
01:35 AM 60.7°F15.9°C 40.3°F4.6°C 47% 4.6 mph N7.4 kmh N 5.8 mph9.3 kmh 29.96 in1014.6 mb - 0.00 in0.0 mm 0.00 in0.0 mm
01:40 AM 60.2°F15.7°C 40.5°F4.7°C 48% 3.5 mph NNE5.6 kmh NNE 4.6 mph7.4 kmh 29.96 in1014.6 mb - 0.00 in0.0 mm 0.00 in0.0 mm
01:45 AM 60.1°F15.6°C 40.3°F4.6°C 48% 4.6 mph N7.4 kmh N 4.6 mph7.4 kmh 29.96 in1014.6 mb - 0.00 in0.0 mm 0.00 in0.0 mm
01:50 AM 60.1°F15.6°C 40.3°F4.6°C 48% 4.6 mph NW7.4 kmh NW 5.8 mph9.3 kmh 29.96 in1014.6 mb - 0.00 in0.0 mm 0.00 in0.0 mm
01:55 AM 60.1°F15.6°C 40.3°F4.6°C 48% 4.6 mph NNE7.4 kmh NNE 4.6 mph7.4 kmh 29.97 in1014.9 mb - 0.00 in0.0 mm 0.00 in0.0 mm
02:00 AM 60.1°F15.6°C 40.3°F4.6°C 48% 4.6 mph NNE7.4 kmh NNE 8.1 mph13.0 kmh 29.97 in1014.9 mb - 0.00 in0.0 mm 0.00 in0.0 mm
02:10 AM 60.2°F15.7°C 40.4°F4.7°C 48% 3.5 mph N5.6 kmh N 4.6 mph7.4 kmh 29.97 in1014.9 mb - 0.00 in0.0 mm 0.00 in0.0 mm
02:15 AM 60.5°F15.8°C 40.2°F4.6°C 47% 4.6 mph NNE7.4 kmh NNE 4.6 mph7.4 kmh 29.97 in1014.9 mb - 0.00 in0.0 mm 0.00 in0.0 mm
02:20 AM 60.8°F16.0°C 40.4°F4.7°C 47% 3.5 mph N5.6 kmh N 5.8 mph9.3 kmh 29.97 in1014.9 mb - 0.00 in0.0 mm 0.00 in0.0 mm
02:25 AM 61.0°F16.1°C 40.6°F4.8°C 47% 4.6 mph N7.4 kmh N 4.6 mph7.4 kmh 29.97 in1014.9 mb - 0.00 in0.0 mm 0.00 in0.0 mm
02:35 AM 60.4°F15.8°C 40.6°F4.8°C 48% 2.3 mph N3.7 kmh N 3.5 mph5.6 kmh 29.97 in1014.9 mb - 0.00 in0.0 mm 0.00 in0.0 mm
02:40 AM 60.0°F15.6°C 40.7°F4.8°C 49% 2.3 mph N3.7 kmh N 3.5 mph5.6 kmh 29.97 in1014.9 mb - 0.00 in0.0 mm 0.00 in0.0 mm
02:45 AM 59.8°F15.4°C 40.6°F4.8°C 49% 4.6 mph N7.4 kmh N 4.6 mph7.4 kmh 29.97 in1014.9 mb - 0.00 in0.0 mm 0.00 in0.0 mm
02:50 AM 60.0°F15.6°C 40.2°F4.6°C 48% 4.6 mph NE7.4 kmh NE 3.5 mph5.6 kmh 29.97 in1014.9 mb - 0.00 in0.0 mm 0.00 in0.0 mm
02:55 AM 59.9°F15.5°C 40.2°F4.6°C 48% 4.6 mph N7.4 kmh N 4.6 mph7.4 kmh 29.97 in1014.9 mb - 0.00 in0.0 mm 0.00 in0.0 mm
03:00 AM 59.7°F15.4°C 40.5°F4.7°C 49% 3.5 mph NNE5.6 kmh NNE 3.5 mph5.6 kmh 29.97 in1014.9 mb - 0.00 in0.0 mm 0.00 in0.0 mm
03:10 AM 59.4°F15.2°C 40.2°F4.6°C 49% 3.5 mph N5.6 kmh N 4.6 mph7.4 kmh 29.97 in1014.9 mb - 0.00 in0.0 mm 0.00 in0.0 mm
03:15 AM 59.4°F15.2°C 40.2°F4.6°C 49% 3.5 mph N5.6 kmh N 3.5 mph5.6 kmh 29.97 in1014.9 mb - 0.00 in0.0 mm 0.00 in0.0 mm
03:20 AM 59.3°F15.2°C 40.7°F4.8°C 50% 3.5 mph N5.6 kmh N 4.6 mph7.4 kmh 29.97 in1014.9 mb - 0.00 in0.0 mm 0.00 in0.0 mm
03:25 AM 59.3°F15.2°C 40.7°F4.8°C 50% 4.6 mph NE7.4 kmh NE 5.8 mph9.3 kmh 29.97 in1014.9 mb - 0.00 in0.0 mm 0.00 in0.0 mm
03:30 AM 59.3°F15.2°C 40.7°F4.8°C 50% 4.6 mph N7.4 kmh N 6.9 mph11.1 kmh 29.97 in1014.9 mb - 0.00 in0.0 mm 0.00 in0.0 mm
03:35 AM 59.3°F15.2°C 40.7°F4.8°C 50% 4.6 mph NNE7.4 kmh NNE 4.6 mph7.4 kmh 29.97 in1014.9 mb - 0.00 in0.0 mm 0.00 in0.0 mm
03:40 AM 59.3°F15.2°C 40.7°F4.8°C 50% 4.6 mph N7.4 kmh N 6.9 mph11.1 kmh 29.97 in1014.9 mb - 0.00 in0.0 mm 0.00 in0.0 mm
03:45 AM 59.1°F15.1°C 40.5°F4.7°C 50% 4.6 mph NNE7.4 kmh NNE 6.9 mph11.1 kmh 29.98 in1015.2 mb - 0.00 in0.0 mm 0.00 in0.0 mm
03:50 AM 58.8°F14.9°C 40.2°F4.6°C 50% 4.6 mph NNE7.4 kmh NNE 5.8 mph9.3 kmh 29.98 in1015.2 mb - 0.00 in0.0 mm 0.00 in0.0 mm
03:55 AM 58.4°F14.7°C 40.3°F4.6°C 51% 3.5 mph N5.6 kmh N 6.9 mph11.1 kmh 29.98 in1015.2 mb - 0.00 in0.0 mm 0.00 in0.0 mm
04:00 AM 58.3°F14.6°C 40.2°F4.6°C 51% 4.6 mph NNE7.4 kmh NNE 8.1 mph13.0 kmh 29.98 in1015.2 mb - 0.00 in0.0 mm 0.00 in0.0 mm
04:10 AM 58.6°F14.8°C 40.5°F4.7°C 51% 5.8 mph N9.3 kmh N 3.5 mph5.6 kmh 29.98 in1015.2 mb - 0.00 in0.0 mm 0.00 in0.0 mm
04:15 AM 58.5°F14.7°C 40.4°F4.7°C 51% 4.6 mph N7.4 kmh N 5.8 mph9.3 kmh 29.97 in1014.9 mb - 0.00 in0.0 mm 0.00 in0.0 mm
04:20 AM 58.1°F14.5°C 40.1°F4.5°C 51% 4.6 mph NNE7.4 kmh NNE 5.8 mph9.3 kmh 29.97 in1014.9 mb - 0.00 in0.0 mm 0.00 in0.0 mm
04:25 AM 57.9°F14.4°C 40.4°F4.7°C 52% 4.6 mph N7.4 kmh N 5.8 mph9.3 kmh 29.97 in1014.9 mb - 0.00 in0.0 mm 0.00 in0.0 mm
04:30 AM 57.8°F14.3°C 40.3°F4.6°C 52% 4.6 mph N7.4 kmh N 4.6 mph7.4 kmh 29.97 in1014.9 mb - 0.00 in0.0 mm 0.00 in0.0 mm
04:40 AM 57.7°F14.3°C 40.2°F4.6°C 52% 5.8 mph N9.3 kmh N 8.1 mph13.0 kmh 29.97 in1014.9 mb - 0.00 in0.0 mm 0.00 in0.0 mm
04:45 AM 57.6°F14.2°C 40.1°F4.5°C 52% 4.6 mph N7.4 kmh N 5.8 mph9.3 kmh 29.97 in1014.9 mb - 0.00 in0.0 mm 0.00 in0.0 mm
04:50 AM 57.8°F14.3°C 40.3°F4.6°C 52% 4.6 mph N7.4 kmh N 4.6 mph7.4 kmh 29.97 in1014.9 mb - 0.00 in0.0 mm 0.00 in0.0 mm
04:55 AM 58.0°F14.4°C 40.4°F4.7°C 52% 4.6 mph N7.4 kmh N 5.8 mph9.3 kmh 29.97 in1014.9 mb - 0.00 in0.0 mm 0.00 in0.0 mm
05:00 AM 57.9°F14.4°C 40.3°F4.6°C 52% 4.6 mph NE7.4 kmh NE 4.6 mph7.4 kmh 29.97 in1014.9 mb - 0.00 in0.0 mm 0.00 in0.0 mm
05:10 AM 58.0°F14.4°C 40.0°F4.4°C 51% 3.5 mph NNW5.6 kmh NNW 3.5 mph5.6 kmh 29.97 in1014.9 mb - 0.00 in0.0 mm 0.00 in0.0 mm
05:15 AM 58.0°F14.4°C 40.0°F4.4°C 51% 4.6 mph NNE7.4 kmh NNE 8.1 mph13.0 kmh 29.98 in1015.2 mb - 0.00 in0.0 mm 0.00 in0.0 mm
05:20 AM 58.1°F14.5°C 40.1°F4.5°C 51% 4.6 mph N7.4 kmh N 5.8 mph9.3 kmh 29.98 in1015.2 mb - 0.00 in0.0 mm 0.00 in0.0 mm
05:25 AM 58.3°F14.6°C 40.2°F4.6°C 51% 4.6 mph NE7.4 kmh NE 5.8 mph9.3 kmh 29.98 in1015.2 mb - 0.00 in0.0 mm 0.00 in0.0 mm
05:30 AM 58.3°F14.6°C 40.2°F4.6°C 51% 4.6 mph NNE7.4 kmh NNE 3.5 mph5.6 kmh 29.97 in1014.9 mb - 0.00 in0.0 mm 0.00 in0.0 mm
05:35 AM 58.1°F14.5°C 40.5°F4.7°C 52% 3.5 mph N5.6 kmh N 4.6 mph7.4 kmh 29.98 in1015.2 mb - 0.00 in0.0 mm 0.00 in0.0 mm
05:40 AM 57.9°F14.4°C 40.4°F4.7°C 52% 4.6 mph N7.4 kmh N 4.6 mph7.4 kmh 29.98 in1015.2 mb - 0.00 in0.0 mm 0.00 in0.0 mm
05:45 AM 57.7°F14.3°C 40.2°F4.6°C 52% 3.5 mph N5.6 kmh N 4.6 mph7.4 kmh 29.98 in1015.2 mb - 0.00 in0.0 mm 0.00 in0.0 mm
05:50 AM 57.5°F14.2°C 40.5°F4.7°C 53% 3.5 mph N5.6 kmh N 4.6 mph7.4 kmh 29.98 in1015.2 mb - 0.00 in0.0 mm 0.00 in0.0 mm
05:55 AM 57.6°F14.2°C 40.6°F4.8°C 53% 3.5 mph N5.6 kmh N 3.5 mph5.6 kmh 29.98 in1015.2 mb - 0.00 in0.0 mm 0.00 in0.0 mm
06:00 AM 57.4°F14.1°C 40.4°F4.7°C 53% 3.5 mph NNE5.6 kmh NNE 6.9 mph11.1 kmh 29.98 in1015.2 mb - 0.00 in0.0 mm 0.00 in0.0 mm
06:10 AM 57.3°F14.1°C 40.3°F4.6°C 53% 3.5 mph N5.6 kmh N 3.5 mph5.6 kmh 29.98 in1015.2 mb - 0.00 in0.0 mm 0.00 in0.0 mm
06:15 AM 57.2°F14.0°C 40.2°F4.6°C 53% 3.5 mph NE5.6 kmh NE 5.8 mph9.3 kmh 29.98 in1015.2 mb - 0.00 in0.0 mm 0.00 in0.0 mm
06:20 AM 57.1°F13.9°C 40.2°F4.6°C 53% 5.8 mph N9.3 kmh N 6.9 mph11.1 kmh 29.98 in1015.2 mb - 0.00 in0.0 mm 0.00 in0.0 mm
06:25 AM 57.1°F13.9°C 40.1°F4.5°C 53% 5.8 mph NNE9.3 kmh NNE 5.8 mph9.3 kmh 29.98 in1015.2 mb - 0.00 in0.0 mm 0.00 in0.0 mm
06:30 AM 56.9°F13.8°C 40.4°F4.7°C 54% 4.6 mph NNE7.4 kmh NNE 3.5 mph5.6 kmh 29.98 in1015.2 mb - 0.00 in0.0 mm 0.00 in0.0 mm
06:35 AM 56.9°F13.8°C 40.4°F4.7°C 54% 4.6 mph NNE7.4 kmh NNE 5.8 mph9.3 kmh 29.98 in1015.2 mb - 0.00 in0.0 mm 0.00 in0.0 mm
06:40 AM 56.9°F13.8°C 40.0°F4.4°C 53% 5.8 mph NNE9.3 kmh NNE 5.8 mph9.3 kmh 29.98 in1015.2 mb - 0.00 in0.0 mm 0.00 in0.0 mm
06:45 AM 56.7°F13.7°C 40.2°F4.6°C 54% 4.6 mph NNE7.4 kmh NNE 6.9 mph11.1 kmh 29.98 in1015.2 mb - 0.00 in0.0 mm 0.00 in0.0 mm
06:50 AM 56.8°F13.8°C 40.3°F4.6°C 54% 4.6 mph N7.4 kmh N 5.8 mph9.3 kmh 29.98 in1015.2 mb - 0.00 in0.0 mm 0.00 in0.0 mm
06:55 AM 56.8°F13.8°C 40.3°F4.6°C 54% 4.6 mph N7.4 kmh N 5.8 mph9.3 kmh 29.98 in1015.2 mb - 0.00 in0.0 mm 0.00 in0.0 mm
07:00 AM 56.7°F13.7°C 40.2°F4.6°C 54% 3.5 mph N5.6 kmh N 5.8 mph9.3 kmh 29.98 in1015.2 mb - 0.00 in0.0 mm 0.00 in0.0 mm
07:10 AM 56.6°F13.7°C 40.6°F4.8°C 55% 2.3 mph N3.7 kmh N 3.5 mph5.6 kmh 29.98 in1015.2 mb - 0.00 in0.0 mm 0.00 in0.0 mm
07:15 AM 56.8°F13.8°C 40.8°F4.9°C 55% 2.3 mph NNE3.7 kmh NNE 3.5 mph5.6 kmh 29.98 in1015.2 mb - 0.00 in0.0 mm 0.00 in0.0 mm
07:20 AM 57.2°F14.0°C 40.7°F4.8°C 54% 2.3 mph NNE3.7 kmh NNE 4.6 mph7.4 kmh 29.99 in1015.6 mb - 0.00 in0.0 mm 0.00 in0.0 mm
07:25 AM 57.0°F13.9°C 40.5°F4.7°C 54% 2.3 mph NNE3.7 kmh NNE 3.5 mph5.6 kmh 29.99 in1015.6 mb - 0.00 in0.0 mm 0.00 in0.0 mm
07:30 AM 57.0°F13.9°C 40.5°F4.7°C 54% 2.3 mph NNE3.7 kmh NNE 4.6 mph7.4 kmh 29.99 in1015.6 mb - 0.00 in0.0 mm 0.00 in0.0 mm
07:35 AM 57.3°F14.1°C 40.8°F4.9°C 54% 3.5 mph N5.6 kmh N 4.6 mph7.4 kmh 30.00 in1015.9 mb - 0.00 in0.0 mm 0.00 in0.0 mm
07:40 AM 57.6°F14.2°C 40.6°F4.8°C 53% 3.5 mph NNE5.6 kmh NNE 8.1 mph13.0 kmh 30.00 in1015.9 mb - 0.00 in0.0 mm 0.00 in0.0 mm
07:45 AM 57.9°F14.4°C 40.9°F4.9°C 53% 3.5 mph N5.6 kmh N 5.8 mph9.3 kmh 30.00 in1015.9 mb - 0.00 in0.0 mm 0.00 in0.0 mm
07:50 AM 58.0°F14.4°C 41.0°F5.0°C 53% 3.5 mph NNE5.6 kmh NNE 4.6 mph7.4 kmh 30.00 in1015.9 mb - 0.00 in0.0 mm 0.00 in0.0 mm
07:55 AM 58.2°F14.6°C 41.2°F5.1°C 53% 3.5 mph N5.6 kmh N 5.8 mph9.3 kmh 30.00 in1015.9 mb - 0.00 in0.0 mm 0.00 in0.0 mm
08:00 AM 58.5°F14.7°C 40.9°F4.9°C 52% 3.5 mph N5.6 kmh N 5.8 mph9.3 kmh 30.00 in1015.9 mb - 0.00 in0.0 mm 0.00 in0.0 mm
08:10 AM 59.1°F15.1°C 41.5°F5.3°C 52% 4.6 mph N7.4 kmh N 6.9 mph11.1 kmh 30.01 in1016.3 mb - 0.00 in0.0 mm 0.00 in0.0 mm
08:15 AM 59.4°F15.2°C 41.3°F5.2°C 51% 4.6 mph N7.4 kmh N 6.9 mph11.1 kmh 30.01 in1016.3 mb - 0.00 in0.0 mm 0.00 in0.0 mm
08:20 AM 59.7°F15.4°C 41.5°F5.3°C 51% 4.6 mph N7.4 kmh N 8.1 mph13.0 kmh 30.01 in1016.3 mb - 0.00 in0.0 mm 0.00 in0.0 mm
08:25 AM 60.3°F15.7°C 41.6°F5.3°C 50% 4.6 mph N7.4 kmh N 5.8 mph9.3 kmh 30.01 in1016.3 mb - 0.00 in0.0 mm 0.00 in0.0 mm
08:30 AM 60.7°F15.9°C 41.9°F5.5°C 50% 5.8 mph N9.3 kmh N 8.1 mph13.0 kmh 30.01 in1016.3 mb - 0.00 in0.0 mm 0.00 in0.0 mm
08:35 AM 60.9°F16.1°C 42.2°F5.7°C 50% 4.6 mph N7.4 kmh N 8.1 mph13.0 kmh 30.01 in1016.3 mb - 0.00 in0.0 mm 0.00 in0.0 mm
08:40 AM 61.4°F16.3°C 42.0°F5.6°C 49% 5.8 mph N9.3 kmh N 8.1 mph13.0 kmh 30.01 in1016.3 mb - 0.00 in0.0 mm 0.00 in0.0 mm
08:45 AM 61.9°F16.6°C 42.0°F5.6°C 48% 4.6 mph NNE7.4 kmh NNE 6.9 mph11.1 kmh 30.01 in1016.3 mb - 0.00 in0.0 mm 0.00 in0.0 mm
08:50 AM 62.4°F16.9°C 41.9°F5.5°C 47% 5.8 mph N9.3 kmh N 6.9 mph11.1 kmh 30.02 in1016.6 mb - 0.00 in0.0 mm 0.00 in0.0 mm
08:55 AM 62.7°F17.1°C 42.2°F5.7°C 47% 4.6 mph N7.4 kmh N 6.9 mph11.1 kmh 30.02 in1016.6 mb - 0.00 in0.0 mm 0.00 in0.0 mm
09:00 AM 63.2°F17.3°C 42.6°F5.9°C 47% 4.6 mph NNE7.4 kmh NNE 5.8 mph9.3 kmh 30.02 in1016.6 mb - 0.00 in0.0 mm 0.00 in0.0 mm
09:10 AM 63.8°F17.7°C 42.6°F5.9°C 46% 4.6 mph N7.4 kmh N 6.9 mph11.1 kmh 30.02 in1016.6 mb - 0.00 in0.0 mm 0.00 in0.0 mm
09:15 AM 64.1°F17.8°C 42.3°F5.7°C 45% 4.6 mph N7.4 kmh N 6.9 mph11.1 kmh 30.02 in1016.6 mb - 0.00 in0.0 mm 0.00 in0.0 mm
09:20 AM 64.5°F18.1°C 42.7°F5.9°C 45% 4.6 mph N7.4 kmh N 5.8 mph9.3 kmh 30.02 in1016.6 mb - 0.00 in0.0 mm 0.00 in0.0 mm
09:25 AM 65.0°F18.3°C 43.1°F6.2°C 45% 4.6 mph NNE7.4 kmh NNE 5.8 mph9.3 kmh 30.02 in1016.6 mb - 0.00 in0.0 mm 0.00 in0.0 mm
09:30 AM 65.5°F18.6°C 43.0°F6.1°C 44% 3.5 mph N5.6 kmh N 4.6 mph7.4 kmh 30.02 in1016.6 mb - 0.00 in0.0 mm 0.00 in0.0 mm
09:35 AM 66.1°F18.9°C 43.6°F6.4°C 44% 3.5 mph NNE5.6 kmh NNE 4.6 mph7.4 kmh 30.02 in1016.6 mb - 0.00 in0.0 mm 0.00 in0.0 mm
09:40 AM 66.7°F19.3°C 44.1°F6.7°C 44% 2.3 mph N3.7 kmh N 3.5 mph5.6 kmh 30.02 in1016.6 mb - 0.00 in0.0 mm 0.00 in0.0 mm
09:45 AM 67.2°F19.6°C 43.3°F6.3°C 42% 3.5 mph N5.6 kmh N 4.6 mph7.4 kmh 30.02 in1016.6 mb - 0.00 in0.0 mm 0.00 in0.0 mm
09:50 AM 67.7°F19.8°C 44.4°F6.9°C 43% 1.2 mph NNE1.9 kmh NNE 3.5 mph5.6 kmh 30.02 in1016.6 mb - 0.00 in0.0 mm 0.00 in0.0 mm
09:55 AM 68.2°F20.1°C 44.3°F6.8°C 42% 1.2 mph N1.9 kmh N 2.3 mph3.7 kmh 30.02 in1016.6 mb - 0.00 in0.0 mm 0.00 in0.0 mm
10:00 AM 68.6°F20.3°C 43.3°F6.3°C 40% 1.2 mph N1.9 kmh N 1.2 mph1.9 kmh 30.02 in1016.6 mb - 0.00 in0.0 mm 0.00 in0.0 mm
10:10 AM 69.7°F20.9°C 43.6°F6.4°C 39% 1.2 mph NNE1.9 kmh NNE 3.5 mph5.6 kmh 30.02 in1016.6 mb - 0.00 in0.0 mm 0.00 in0.0 mm
10:15 AM 69.9°F21.1°C 41.7°F5.4°C 36% 1.2 mph N1.9 kmh N 1.2 mph1.9 kmh 30.02 in1016.6 mb - 0.00 in0.0 mm 0.00 in0.0 mm
10:20 AM 70.8°F21.6°C 43.9°F6.6°C 38% Calm Calm -- 30.02 in1016.6 mb - 0.00 in0.0 mm 0.00 in0.0 mm
10:25 AM 71.9°F22.2°C 43.5°F6.4°C 36% Calm Calm 2.3 mph3.7 kmh 30.02 in1016.6 mb - 0.00 in0.0 mm 0.00 in0.0 mm
10:30 AM 72.4°F22.4°C 43.2°F6.2°C 35% Calm Calm 1.2 mph1.9 kmh 30.02 in1016.6 mb - 0.00 in0.0 mm 0.00 in0.0 mm
10:35 AM 73.1°F22.8°C 43.1°F6.2°C 34% Calm Calm 1.2 mph1.9 kmh 30.02 in1016.6 mb - 0.00 in0.0 mm 0.00 in0.0 mm
10:40 AM 73.4°F23.0°C 43.3°F6.3°C 34% Calm Calm 3.5 mph5.6 kmh 30.02 in1016.6 mb - 0.00 in0.0 mm 0.00 in0.0 mm
10:45 AM 73.0°F22.8°C 43.0°F6.1°C 34% 1.2 mph SW1.9 kmh SW 3.5 mph5.6 kmh 30.02 in1016.6 mb - 0.00 in0.0 mm 0.00 in0.0 mm
10:50 AM 72.7°F22.6°C 42.7°F5.9°C 34% 1.2 mph SSW1.9 kmh SSW 2.3 mph3.7 kmh 30.02 in1016.6 mb - 0.00 in0.0 mm 0.00 in0.0 mm
10:55 AM 73.2°F22.9°C 43.1°F6.2°C 34% 1.2 mph S1.9 kmh S 2.3 mph3.7 kmh 30.02 in1016.6 mb - 0.00 in0.0 mm 0.00 in0.0 mm
11:00 AM 73.6°F23.1°C 43.5°F6.4°C 34% 1.2 mph SSW1.9 kmh SSW 1.2 mph1.9 kmh 30.02 in1016.6 mb - 0.00 in0.0 mm 0.00 in0.0 mm
11:10 AM 74.0°F23.3°C 42.2°F5.7°C 32% 1.2 mph SE1.9 kmh SE 2.3 mph3.7 kmh 30.01 in1016.3 mb - 0.00 in0.0 mm 0.00 in0.0 mm
11:15 AM 74.0°F23.3°C 42.3°F5.7°C 32% 1.2 mph SSE1.9 kmh SSE 3.5 mph5.6 kmh 30.01 in1016.3 mb - 0.00 in0.0 mm 0.00 in0.0 mm
11:20 AM 74.3°F23.5°C 43.3°F6.3°C 33% 1.2 mph S1.9 kmh S 3.5 mph5.6 kmh 30.01 in1016.3 mb - 0.00 in0.0 mm 0.00 in0.0 mm
11:25 AM 74.6°F23.7°C 43.6°F6.4°C 33% 1.2 mph SSE1.9 kmh SSE 2.3 mph3.7 kmh 30.01 in1016.3 mb - 0.00 in0.0 mm 0.00 in0.0 mm
11:30 AM 74.9°F23.8°C 43.0°F6.1°C 32% 2.3 mph SW3.7 kmh SW 4.6 mph7.4 kmh 30.01 in1016.3 mb - 0.00 in0.0 mm 0.00 in0.0 mm
11:35 AM 74.2°F23.4°C 42.5°F5.8°C 32% 1.2 mph S1.9 kmh S 2.3 mph3.7 kmh 30.01 in1016.3 mb - 0.00 in0.0 mm 0.00 in0.0 mm
11:40 AM 74.6°F23.7°C 42.8°F6.0°C 32% Calm Calm 3.5 mph5.6 kmh 30.01 in1016.3 mb - 0.00 in0.0 mm 0.00 in0.0 mm
11:45 AM 74.7°F23.7°C 42.9°F6.1°C 32% 2.3 mph SSW3.7 kmh SSW 3.5 mph5.6 kmh 30.01 in1016.3 mb - 0.00 in0.0 mm 0.00 in0.0 mm
11:50 AM 74.5°F23.6°C 43.5°F6.4°C 33% 2.3 mph S3.7 kmh S 3.5 mph5.6 kmh 30.01 in1016.3 mb - 0.00 in0.0 mm 0.00 in0.0 mm
11:55 AM 74.4°F23.6°C 43.4°F6.3°C 33% 1.2 mph E1.9 kmh E 1.2 mph1.9 kmh 30.01 in1016.3 mb - 0.00 in0.0 mm 0.00 in0.0 mm
12:00 PM 74.9°F23.8°C 43.8°F6.6°C 33% 2.3 mph SW3.7 kmh SW 5.8 mph9.3 kmh 30.00 in1015.9 mb - 0.00 in0.0 mm 0.00 in0.0 mm
12:10 PM 75.3°F24.1°C 44.2°F6.8°C 33% Calm Calm 1.2 mph1.9 kmh 30.00 in1015.9 mb - 0.00 in0.0 mm 0.00 in0.0 mm
12:15 PM 75.8°F24.3°C 43.8°F6.6°C 32% Calm Calm 2.3 mph3.7 kmh 30.00 in1015.9 mb - 0.00 in0.0 mm 0.00 in0.0 mm
12:20 PM 76.2°F24.6°C 44.2°F6.8°C 32% Calm Calm 2.3 mph3.7 kmh 30.00 in1015.9 mb - 0.00 in0.0 mm 0.00 in0.0 mm
12:25 PM 76.3°F24.6°C 43.4°F6.3°C 31% 1.2 mph SW1.9 kmh SW 3.5 mph5.6 kmh 29.99 in1015.6 mb - 0.00 in0.0 mm 0.00 in0.0 mm
12:30 PM 76.1°F24.5°C 43.2°F6.2°C 31% 2.3 mph SSW3.7 kmh SSW 3.5 mph5.6 kmh 29.99 in1015.6 mb - 0.00 in0.0 mm 0.00 in0.0 mm
12:35 PM 75.9°F24.4°C 43.9°F6.6°C 32% 1.2 mph SW1.9 kmh SW 2.3 mph3.7 kmh 29.99 in1015.6 mb - 0.00 in0.0 mm 0.00 in0.0 mm
12:40 PM 75.8°F24.3°C 43.0°F6.1°C 31% 1.2 mph SSW1.9 kmh SSW 3.5 mph5.6 kmh 29.99 in1015.6 mb - 0.00 in0.0 mm 0.00 in0.0 mm
12:45 PM 75.9°F24.4°C 43.9°F6.6°C 32% 1.2 mph NW1.9 kmh NW 3.5 mph5.6 kmh 29.99 in1015.6 mb - 0.00 in0.0 mm 0.00 in0.0 mm
12:50 PM 75.8°F24.3°C 43.0°F6.1°C 31% 2.3 mph SSW3.7 kmh SSW 3.5 mph5.6 kmh 29.99 in1015.6 mb - 0.00 in0.0 mm 0.00 in0.0 mm
12:55 PM 76.2°F24.6°C 43.3°F6.3°C 31% 2.3 mph SW3.7 kmh SW 3.5 mph5.6 kmh 29.99 in1015.6 mb - 0.00 in0.0 mm 0.00 in0.0 mm
01:00 PM 76.6°F24.8°C 44.5°F6.9°C 32% Calm Calm 3.5 mph5.6 kmh 29.99 in1015.6 mb - 0.00 in0.0 mm 0.00 in0.0 mm
01:10 PM 76.4°F24.7°C 43.5°F6.4°C 31% 2.3 mph SSE3.7 kmh SSE 5.8 mph9.3 kmh 29.98 in1015.2 mb - 0.00 in0.0 mm 0.00 in0.0 mm
01:15 PM 76.1°F24.5°C 43.2°F6.2°C 31% 3.5 mph SSE5.6 kmh SSE 3.5 mph5.6 kmh 29.98 in1015.2 mb - 0.00 in0.0 mm 0.00 in0.0 mm
01:20 PM 76.3°F24.6°C 42.6°F5.9°C 30% 1.2 mph SE1.9 kmh SE 3.5 mph5.6 kmh 29.98 in1015.2 mb - 0.00 in0.0 mm 0.00 in0.0 mm
01:25 PM 76.8°F24.9°C 43.9°F6.6°C 31% 1.2 mph SW1.9 kmh SW 2.3 mph3.7 kmh 29.98 in1015.2 mb - 0.00 in0.0 mm 0.00 in0.0 mm
01:30 PM 77.4°F25.2°C 42.7°F5.9°C 29% 1.2 mph WSW1.9 kmh WSW 3.5 mph5.6 kmh 29.97 in1014.9 mb - 0.00 in0.0 mm 0.00 in0.0 mm
01:35 PM 77.0°F25.0°C 43.2°F6.2°C 30% 2.3 mph S3.7 kmh S 2.3 mph3.7 kmh 29.97 in1014.9 mb - 0.00 in0.0 mm 0.00 in0.0 mm
01:40 PM 77.1°F25.1°C 44.1°F6.7°C 31% 2.3 mph S3.7 kmh S 3.5 mph5.6 kmh 29.97 in1014.9 mb - 0.00 in0.0 mm 0.00 in0.0 mm
01:45 PM 77.1°F25.1°C 43.3°F6.3°C 30% 1.2 mph SSW1.9 kmh SSW 3.5 mph5.6 kmh 29.97 in1014.9 mb - 0.00 in0.0 mm 0.00 in0.0 mm
01:50 PM 77.0°F25.0°C 43.2°F6.2°C 30% 3.5 mph SW5.6 kmh SW 6.9 mph11.1 kmh 29.97 in1014.9 mb - 0.00 in0.0 mm 0.00 in0.0 mm
01:55 PM 76.9°F24.9°C 43.1°F6.2°C 30% 3.5 mph SW5.6 kmh SW 5.8 mph9.3 kmh 29.96 in1014.6 mb - 0.00 in0.0 mm 0.00 in0.0 mm
02:00 PM 76.7°F24.8°C 43.8°F6.6°C 31% 1.2 mph W1.9 kmh W 3.5 mph5.6 kmh 29.96 in1014.6 mb - 0.00 in0.0 mm 0.00 in0.0 mm
02:10 PM 77.5°F25.3°C 44.5°F6.9°C 31% 2.3 mph SW3.7 kmh SW 2.3 mph3.7 kmh 29.97 in1014.9 mb - 0.00 in0.0 mm 0.00 in0.0 mm
02:15 PM 77.1°F25.1°C 44.2°F6.8°C 31% 1.2 mph SW1.9 kmh SW 4.6 mph7.4 kmh 29.97 in1014.9 mb - 0.00 in0.0 mm 0.00 in0.0 mm
02:20 PM 77.5°F25.3°C 43.6°F6.4°C 30% 1.2 mph SW1.9 kmh SW 5.8 mph9.3 kmh 29.97 in1014.9 mb - 0.00 in0.0 mm 0.00 in0.0 mm
02:25 PM 77.7°F25.4°C 43.8°F6.6°C 30% 2.3 mph WSW3.7 kmh WSW 3.5 mph5.6 kmh 29.97 in1014.9 mb - 0.00 in0.0 mm 0.00 in0.0 mm
02:30 PM 77.8°F25.4°C 43.9°F6.6°C 30% Calm Calm 1.2 mph1.9 kmh 29.97 in1014.9 mb - 0.00 in0.0 mm 0.00 in0.0 mm
02:35 PM 78.6°F25.9°C 44.6°F7.0°C 30% Calm Calm 2.3 mph3.7 kmh 29.96 in1014.6 mb - 0.00 in0.0 mm 0.00 in0.0 mm
02:40 PM 78.6°F25.9°C 43.7°F6.5°C 29% 2.3 mph SSW3.7 kmh SSW 5.8 mph9.3 kmh 29.96 in1014.6 mb - 0.00 in0.0 mm 0.00 in0.0 mm
02:45 PM 78.0°F25.6°C 43.2°F6.2°C 29% 2.3 mph SW3.7 kmh SW 3.5 mph5.6 kmh 29.97 in1014.9 mb - 0.00 in0.0 mm 0.00 in0.0 mm
02:50 PM 78.4°F25.8°C 42.6°F5.9°C 28% 1.2 mph SSW1.9 kmh SSW 3.5 mph5.6 kmh 29.96 in1014.6 mb - 0.00 in0.0 mm 0.00 in0.0 mm
02:55 PM 78.4°F25.8°C 42.6°F5.9°C 28% 1.2 mph S1.9 kmh S 3.5 mph5.6 kmh 29.96 in1014.6 mb - 0.00 in0.0 mm 0.00 in0.0 mm
03:00 PM 78.4°F25.8°C 43.5°F6.4°C 29% 1.2 mph SW1.9 kmh SW 2.3 mph3.7 kmh 29.96 in1014.6 mb - 0.00 in0.0 mm 0.00 in0.0 mm
03:10 PM 79.1°F26.2°C 43.2°F6.2°C 28% 1.2 mph S1.9 kmh S 3.5 mph5.6 kmh 29.97 in1014.9 mb - 0.00 in0.0 mm 0.00 in0.0 mm
03:15 PM 79.5°F26.4°C 44.4°F6.9°C 29% Calm Calm 1.2 mph1.9 kmh 29.97 in1014.9 mb - 0.00 in0.0 mm 0.00 in0.0 mm
03:20 PM 79.3°F26.3°C 44.3°F6.8°C 29% Calm Calm 2.3 mph3.7 kmh 29.96 in1014.6 mb - 0.00 in0.0 mm 0.00 in0.0 mm
03:25 PM 79.3°F26.3°C 44.3°F6.8°C 29% 1.2 mph SW1.9 kmh SW 4.6 mph7.4 kmh 29.97 in1014.9 mb - 0.00 in0.0 mm 0.00 in0.0 mm
03:30 PM 79.3°F26.3°C 43.3°F6.3°C 28% 1.2 mph SW1.9 kmh SW 3.5 mph5.6 kmh 29.96 in1014.6 mb - 0.00 in0.0 mm 0.00 in0.0 mm
03:35 PM 78.7°F25.9°C 42.9°F6.1°C 28% 3.5 mph SW5.6 kmh SW 4.6 mph7.4 kmh 29.96 in1014.6 mb - 0.00 in0.0 mm 0.00 in0.0 mm
03:40 PM 78.3°F25.7°C 43.4°F6.3°C 29% 3.5 mph SSW5.6 kmh SSW 5.8 mph9.3 kmh 29.97 in1014.9 mb - 0.00 in0.0 mm 0.00 in0.0 mm
03:45 PM 77.9°F25.5°C 43.0°F6.1°C 29% 3.5 mph SSW5.6 kmh SSW 5.8 mph9.3 kmh 29.96 in1014.6 mb - 0.00 in0.0 mm 0.00 in0.0 mm
03:50 PM 77.7°F25.4°C 43.8°F6.6°C 30% 2.3 mph S3.7 kmh S 2.3 mph3.7 kmh 29.96 in1014.6 mb - 0.00 in0.0 mm 0.00 in0.0 mm
03:55 PM 77.1°F25.1°C 43.3°F6.3°C 30% 2.3 mph SW3.7 kmh SW 4.6 mph7.4 kmh 29.96 in1014.6 mb - 0.00 in0.0 mm 0.00 in0.0 mm
04:00 PM 76.5°F24.7°C 42.8°F6.0°C 30% 2.3 mph SSW3.7 kmh SSW 2.3 mph3.7 kmh 29.96 in1014.6 mb - 0.00 in0.0 mm 0.00 in0.0 mm
04:10 PM 75.8°F24.3°C 43.8°F6.6°C 32% 1.2 mph SW1.9 kmh SW 2.3 mph3.7 kmh 29.97 in1014.9 mb - 0.00 in0.0 mm 0.00 in0.0 mm
04:15 PM 75.5°F24.2°C 43.6°F6.4°C 32% 2.3 mph S3.7 kmh S 4.6 mph7.4 kmh 29.97 in1014.9 mb - 0.00 in0.0 mm 0.00 in0.0 mm
04:20 PM 75.2°F24.0°C 43.3°F6.3°C 32% 2.3 mph SW3.7 kmh SW 4.6 mph7.4 kmh 29.97 in1014.9 mb - 0.00 in0.0 mm 0.00 in0.0 mm
04:25 PM 75.1°F23.9°C 43.2°F6.2°C 32% 1.2 mph SSW1.9 kmh SSW 3.5 mph5.6 kmh 29.97 in1014.9 mb - 0.00 in0.0 mm 0.00 in0.0 mm
04:30 PM 74.9°F23.8°C 43.0°F6.1°C 32% 1.2 mph SW1.9 kmh SW 2.3 mph3.7 kmh 29.97 in1014.9 mb - 0.00 in0.0 mm 0.00 in0.0 mm
04:35 PM 74.8°F23.8°C 43.7°F6.5°C 33% 1.2 mph SSW1.9 kmh SSW 3.5 mph5.6 kmh 29.97 in1014.9 mb - 0.00 in0.0 mm 0.00 in0.0 mm
04:40 PM 74.6°F23.7°C 43.6°F6.4°C 33% 2.3 mph SW3.7 kmh SW 3.5 mph5.6 kmh 29.97 in1014.9 mb - 0.00 in0.0 mm 0.00 in0.0 mm
04:45 PM 74.4°F23.6°C 44.2°F6.8°C 34% 1.2 mph SW1.9 kmh SW 3.5 mph5.6 kmh 29.97 in1014.9 mb - 0.00 in0.0 mm 0.00 in0.0 mm
04:50 PM 74.2°F23.4°C 44.0°F6.7°C 34% 2.3 mph SSW3.7 kmh SSW 3.5 mph5.6 kmh 29.97 in1014.9 mb - 0.00 in0.0 mm 0.00 in0.0 mm
04:55 PM 74.0°F23.3°C 43.8°F6.6°C 34% 2.3 mph SW3.7 kmh SW 2.3 mph3.7 kmh 29.97 in1014.9 mb - 0.00 in0.0 mm 0.00 in0.0 mm
05:00 PM 73.9°F23.3°C 43.8°F6.6°C 34% 1.2 mph SW1.9 kmh SW 3.5 mph5.6 kmh 29.97 in1014.9 mb - 0.00 in0.0 mm 0.00 in0.0 mm
05:10 PM 73.8°F23.2°C 43.7°F6.5°C 34% 1.2 mph SW1.9 kmh SW 1.2 mph1.9 kmh 29.98 in1015.2 mb - 0.00 in0.0 mm 0.00 in0.0 mm
05:15 PM 73.6°F23.1°C 43.5°F6.4°C 34% Calm Calm 1.2 mph1.9 kmh 29.98 in1015.2 mb - 0.00 in0.0 mm 0.00 in0.0 mm
05:20 PM 73.4°F23.0°C 44.0°F6.7°C 35% Calm Calm 1.2 mph1.9 kmh 29.98 in1015.2 mb - 0.00 in0.0 mm 0.00 in0.0 mm
05:25 PM 73.0°F22.8°C 43.8°F6.6°C 35% Calm Calm 1.2 mph1.9 kmh 29.98 in1015.2 mb - 0.00 in0.0 mm 0.00 in0.0 mm
05:30 PM 72.8°F22.7°C 44.3°F6.8°C 36% Calm Calm -- 29.98 in1015.2 mb - 0.00 in0.0 mm 0.00 in0.0 mm
05:35 PM 72.5°F22.5°C 44.0°F6.7°C 36% Calm Calm -- 29.98 in1015.2 mb - 0.00 in0.0 mm 0.00 in0.0 mm
05:40 PM 72.0°F22.2°C 44.3°F6.8°C 37% Calm Calm -- 29.98 in1015.2 mb - 0.00 in0.0 mm 0.00 in0.0 mm
05:45 PM 71.7°F22.1°C 44.0°F6.7°C 37% Calm Calm 1.2 mph1.9 kmh 29.98 in1015.2 mb - 0.00 in0.0 mm 0.00 in0.0 mm
05:50 PM 71.4°F21.9°C 43.7°F6.5°C 37% Calm Calm -- 29.98 in1015.2 mb - 0.00 in0.0 mm 0.00 in0.0 mm
05:55 PM 70.9°F21.6°C 44.0°F6.7°C 38% Calm Calm -- 29.99 in1015.6 mb - 0.00 in0.0 mm 0.00 in0.0 mm
06:00 PM 70.5°F21.4°C 44.3°F6.8°C 39% Calm Calm -- 29.99 in1015.6 mb - 0.00 in0.0 mm 0.00 in0.0 mm
06:10 PM 69.3°F20.7°C 44.6°F7.0°C 41% Calm Calm -- 29.99 in1015.6 mb - 0.00 in0.0 mm 0.00 in0.0 mm
06:15 PM 69.0°F20.6°C 44.3°F6.8°C 41% Calm Calm -- 29.99 in1015.6 mb - 0.00 in0.0 mm 0.00 in0.0 mm
06:20 PM 68.6°F20.3°C 44.0°F6.7°C 41% Calm Calm -- 29.99 in1015.6 mb - 0.00 in0.0 mm 0.00 in0.0 mm
06:25 PM 68.5°F20.3°C 43.9°F6.6°C 41% Calm Calm -- 30.00 in1015.9 mb - 0.00 in0.0 mm 0.00 in0.0 mm
06:30 PM 68.7°F20.4°C 44.0°F6.7°C 41% Calm Calm -- 30.00 in1015.9 mb - 0.00 in0.0 mm 0.00 in0.0 mm
06:35 PM 69.0°F20.6°C 44.3°F6.8°C 41% Calm Calm -- 30.00 in1015.9 mb - 0.00 in0.0 mm 0.00 in0.0 mm
06:40 PM 68.7°F20.4°C 45.9°F7.7°C 44% 2.3 mph N3.7 kmh N 5.8 mph9.3 kmh 30.01 in1016.3 mb - 0.00 in0.0 mm 0.00 in0.0 mm
06:45 PM 68.5°F20.3°C 39.7°F4.3°C 35% 5.8 mph N9.3 kmh N 6.9 mph11.1 kmh 30.01 in1016.3 mb - 0.00 in0.0 mm 0.00 in0.0 mm
06:50 PM 69.7°F20.9°C 34.2°F1.2°C 27% 5.8 mph N9.3 kmh N 6.9 mph11.1 kmh 30.02 in1016.6 mb - 0.00 in0.0 mm 0.00 in0.0 mm
06:55 PM 70.0°F21.1°C 29.4°F-1.4°C 22% 6.9 mph N11.1 kmh N 10.4 mph16.7 kmh 30.02 in1016.6 mb - 0.00 in0.0 mm 0.00 in0.0 mm
07:00 PM 69.8°F21.0°C 26.9°F-2.8°C 20% 8.1 mph N13.0 kmh N 11.5 mph18.5 kmh 30.02 in1016.6 mb - 0.00 in0.0 mm 0.00 in0.0 mm
07:10 PM 69.2°F20.7°C 25.1°F-3.8°C 19% 8.1 mph N13.0 kmh N 11.5 mph18.5 kmh 30.02 in1016.6 mb - 0.00 in0.0 mm 0.00 in0.0 mm
07:15 PM 68.9°F20.5°C 24.9°F-3.9°C 19% 9.2 mph NNE14.8 kmh NNE 15.0 mph24.1 kmh 30.03 in1016.9 mb - 0.00 in0.0 mm 0.00 in0.0 mm
07:20 PM 68.5°F20.3°C 24.6°F-4.1°C 19% 9.2 mph N14.8 kmh N 11.5 mph18.5 kmh 30.03 in1016.9 mb - 0.00 in0.0 mm 0.00 in0.0 mm
07:25 PM 68.2°F20.1°C 23.0°F-5.0°C 18% 10.4 mph NNE16.7 kmh NNE 12.7 mph20.4 kmh 30.03 in1016.9 mb - 0.00 in0.0 mm 0.00 in0.0 mm
07:35 PM 67.8°F19.9°C 22.7°F-5.2°C 18% 9.2 mph NNE14.8 kmh NNE 17.3 mph27.8 kmh 30.03 in1016.9 mb - 0.00 in0.0 mm 0.00 in0.0 mm
07:40 PM 67.6°F19.8°C 22.5°F-5.3°C 18% 8.1 mph NNE13.0 kmh NNE 13.8 mph22.2 kmh 30.04 in1017.3 mb - 0.00 in0.0 mm 0.00 in0.0 mm
07:45 PM 67.3°F19.6°C 22.3°F-5.4°C 18% 8.1 mph N13.0 kmh N 11.5 mph18.5 kmh 30.04 in1017.3 mb - 0.00 in0.0 mm 0.00 in0.0 mm
07:50 PM 66.9°F19.4°C 20.6°F-6.3°C 17% 9.2 mph NNE14.8 kmh NNE 16.1 mph25.9 kmh 30.04 in1017.3 mb - 0.00 in0.0 mm 0.00 in0.0 mm
07:55 PM 66.7°F19.3°C 20.5°F-6.4°C 17% 10.4 mph N16.7 kmh N 15.0 mph24.1 kmh 30.04 in1017.3 mb - 0.00 in0.0 mm 0.00 in0.0 mm
08:00 PM 66.4°F19.1°C 20.2°F-6.6°C 17% 11.5 mph N18.5 kmh N 17.3 mph27.8 kmh 30.05 in1017.6 mb - 0.00 in0.0 mm 0.00 in0.0 mm
08:10 PM 66.0°F18.9°C 19.9°F-6.7°C 17% 11.5 mph NE18.5 kmh NE 16.1 mph25.9 kmh 30.05 in1017.6 mb - 0.00 in0.0 mm 0.00 in0.0 mm
08:15 PM 66.0°F18.9°C 18.5°F-7.5°C 16% 15.0 mph NNE24.1 kmh NNE 19.6 mph31.5 kmh 30.05 in1017.6 mb - 0.00 in0.0 mm 0.00 in0.0 mm
08:20 PM 65.8°F18.8°C 18.3°F-7.6°C 16% 13.8 mph NNE22.2 kmh NNE 19.6 mph31.5 kmh 30.05 in1017.6 mb - 0.00 in0.0 mm 0.00 in0.0 mm
08:25 PM 65.7°F18.7°C 18.2°F-7.7°C 16% 16.1 mph NNE25.9 kmh NNE 19.6 mph31.5 kmh 30.05 in1017.6 mb - 0.00 in0.0 mm 0.00 in0.0 mm
08:30 PM 65.5°F18.6°C 18.1°F-7.7°C 16% 15.0 mph N24.1 kmh N 19.6 mph31.5 kmh 30.05 in1017.6 mb - 0.00 in0.0 mm 0.00 in0.0 mm
08:35 PM 65.4°F18.6°C 16.5°F-8.6°C 15% 16.1 mph 25.9 kmh 18.4 mph29.6 kmh 30.06 in1017.9 mb - 0.00 in0.0 mm 0.00 in0.0 mm
08:40 PM 65.1°F18.4°C 16.3°F-8.7°C 15% 12.7 mph NNE20.4 kmh NNE 20.7 mph33.3 kmh 30.06 in1017.9 mb - 0.00 in0.0 mm 0.00 in0.0 mm
08:45 PM 64.9°F18.3°C 16.1°F-8.8°C 15% 15.0 mph NNE24.1 kmh NNE 18.4 mph29.6 kmh 30.06 in1017.9 mb - 0.00 in0.0 mm 0.00 in0.0 mm
08:50 PM 64.8°F18.2°C 14.4°F-9.8°C 14% 15.0 mph N24.1 kmh N 16.1 mph25.9 kmh 30.06 in1017.9 mb - 0.00 in0.0 mm 0.00 in0.0 mm
08:55 PM 64.7°F18.2°C 14.3°F-9.8°C 14% 15.0 mph N24.1 kmh N 20.7 mph33.3 kmh 30.06 in1017.9 mb - 0.00 in0.0 mm 0.00 in0.0 mm
09:00 PM 64.5°F18.1°C 14.2°F-9.9°C 14% 13.8 mph N22.2 kmh N 12.7 mph20.4 kmh 30.06 in1017.9 mb - 0.00 in0.0 mm 0.00 in0.0 mm
09:10 PM 64.1°F17.8°C 10.4°F-12.0°C 12% 16.1 mph NNE25.9 kmh NNE 19.6 mph31.5 kmh 30.06 in1017.9 mb - 0.00 in0.0 mm 0.00 in0.0 mm
09:15 PM 63.9°F17.7°C 10.2°F-12.1°C 12% 13.8 mph NE22.2 kmh NE 18.4 mph29.6 kmh 30.06 in1017.9 mb - 0.00 in0.0 mm 0.00 in0.0 mm
09:20 PM 63.8°F17.7°C 8.2°F-13.2°C 11% 12.7 mph N20.4 kmh N 17.3 mph27.8 kmh 30.06 in1017.9 mb - 0.00 in0.0 mm 0.00 in0.0 mm
09:25 PM 63.8°F17.7°C 8.2°F-13.2°C 11% 15.0 mph N24.1 kmh N 19.6 mph31.5 kmh 30.06 in1017.9 mb - 0.00 in0.0 mm 0.00 in0.0 mm
09:30 PM 63.7°F17.6°C 8.1°F-13.3°C 11% 13.8 mph N22.2 kmh N 19.6 mph31.5 kmh 30.07 in1018.3 mb - 0.00 in0.0 mm 0.00 in0.0 mm
09:35 PM 63.7°F17.6°C 8.1°F-13.3°C 11% 15.0 mph N24.1 kmh N 19.6 mph31.5 kmh 30.07 in1018.3 mb - 0.00 in0.0 mm 0.00 in0.0 mm
09:40 PM 63.6°F17.6°C 5.9°F-14.5°C 10% 13.8 mph N22.2 kmh N 20.7 mph33.3 kmh 30.07 in1018.3 mb - 0.00 in0.0 mm 0.00 in0.0 mm
09:45 PM 63.5°F17.5°C 5.9°F-14.5°C 10% 15.0 mph N24.1 kmh N 18.4 mph29.6 kmh 30.08 in1018.6 mb - 0.00 in0.0 mm 0.00 in0.0 mm
09:50 PM 63.5°F17.5°C 5.8°F-14.6°C 10% 12.7 mph NNE20.4 kmh NNE 15.0 mph24.1 kmh 30.08 in1018.6 mb - 0.00 in0.0 mm 0.00 in0.0 mm
09:55 PM 63.3°F17.4°C 3.4°F-15.9°C 9% 17.3 mph NNE27.8 kmh NNE 20.7 mph33.3 kmh 30.08 in1018.6 mb - 0.00 in0.0 mm 0.00 in0.0 mm
10:00 PM 63.1°F17.3°C 3.2°F-16.0°C 9% 13.8 mph NNE22.2 kmh NNE 19.6 mph31.5 kmh 30.08 in1018.6 mb - 0.00 in0.0 mm 0.00 in0.0 mm
10:10 PM 62.9°F17.2°C 5.4°F-14.8°C 10% 12.7 mph N20.4 kmh N 17.3 mph27.8 kmh 30.09 in1019.0 mb - 0.00 in0.0 mm 0.00 in0.0 mm
10:15 PM 62.9°F17.2°C 3.1°F-16.1°C 9% 15.0 mph N24.1 kmh N 19.6 mph31.5 kmh 30.09 in1019.0 mb - 0.00 in0.0 mm 0.00 in0.0 mm
10:20 PM 62.7°F17.1°C 2.9°F-16.2°C 9% 15.0 mph NNE24.1 kmh NNE 17.3 mph27.8 kmh 30.09 in1019.0 mb - 0.00 in0.0 mm 0.00 in0.0 mm
10:25 PM 62.7°F17.1°C 2.9°F-16.2°C 9% 13.8 mph N22.2 kmh N 19.6 mph31.5 kmh 30.09 in1019.0 mb - 0.00 in0.0 mm 0.00 in0.0 mm
10:30 PM 62.6°F17.0°C 2.9°F-16.2°C 9% 13.8 mph NNE22.2 kmh NNE 12.7 mph20.4 kmh 30.09 in1019.0 mb - 0.00 in0.0 mm 0.00 in0.0 mm
10:35 PM 62.5°F16.9°C 2.8°F-16.2°C 9% 13.8 mph N22.2 kmh N 20.7 mph33.3 kmh 30.09 in1019.0 mb - 0.00 in0.0 mm 0.00 in0.0 mm
10:40 PM 62.4°F16.9°C 2.7°F-16.3°C 9% 15.0 mph NNE24.1 kmh NNE 19.6 mph31.5 kmh 30.09 in1019.0 mb - 0.00 in0.0 mm 0.00 in0.0 mm
10:45 PM 62.2°F16.8°C 2.6°F-16.3°C 9% 15.0 mph N24.1 kmh N 19.6 mph31.5 kmh 30.09 in1019.0 mb - 0.00 in0.0 mm 0.00 in0.0 mm
10:50 PM 62.2°F16.8°C 2.6°F-16.3°C 9% 15.0 mph NW24.1 kmh NW 25.3 mph40.7 kmh 30.09 in1019.0 mb - 0.00 in0.0 mm 0.00 in0.0 mm
10:55 PM 62.1°F16.7°C 2.5°F-16.4°C 9% 13.8 mph NNE22.2 kmh NNE 18.4 mph29.6 kmh 30.10 in1019.3 mb - 0.00 in0.0 mm 0.00 in0.0 mm
11:00 PM 62.0°F16.7°C 2.4°F-16.4°C 9% 13.8 mph NNE22.2 kmh NNE 23.0 mph37.0 kmh 30.10 in1019.3 mb - 0.00 in0.0 mm 0.00 in0.0 mm
11:10 PM 61.8°F16.6°C 2.3°F-16.5°C 9% 11.5 mph N18.5 kmh N 19.6 mph31.5 kmh 30.10 in1019.3 mb - 0.00 in0.0 mm 0.00 in0.0 mm
11:15 PM 61.7°F16.5°C 2.2°F-16.6°C 9% 11.5 mph N18.5 kmh N 16.1 mph25.9 kmh 30.10 in1019.3 mb - 0.00 in0.0 mm 0.00 in0.0 mm
11:25 PM 61.5°F16.4°C 2.0°F-16.7°C 9% 15.0 mph N24.1 kmh N 19.6 mph31.5 kmh 30.09 in1019.0 mb - 0.00 in0.0 mm 0.00 in0.0 mm
11:30 PM 61.4°F16.3°C 2.0°F-16.7°C 9% 13.8 mph NNE22.2 kmh NNE 16.1 mph25.9 kmh 30.09 in1019.0 mb - 0.00 in0.0 mm 0.00 in0.0 mm
11:35 PM 61.3°F16.3°C 1.9°F-16.7°C 9% 15.0 mph NE24.1 kmh NE 9.2 mph14.8 kmh 30.10 in1019.3 mb - 0.00 in0.0 mm 0.00 in0.0 mm
11:40 PM 61.0°F16.1°C 1.7°F-16.8°C 9% 15.0 mph N24.1 kmh N 19.6 mph31.5 kmh 30.09 in1019.0 mb - 0.00 in0.0 mm 0.00 in0.0 mm
11:45 PM 60.9°F16.1°C 1.6°F-16.9°C 9% 15.0 mph N24.1 kmh N 24.2 mph38.9 kmh 30.09 in1019.0 mb - 0.00 in0.0 mm 0.00 in0.0 mm
11:50 PM 60.8°F16.0°C 1.5°F-16.9°C 9% 15.0 mph NE24.1 kmh NE 23.0 mph37.0 kmh 30.09 in1019.0 mb - 0.00 in0.0 mm 0.00 in0.0 mm
11:55 PM 60.7°F15.9°C 1.4°F-17.0°C 9% 17.3 mph N27.8 kmh N 21.9 mph35.2 kmh 30.09 in1019.0 mb - 0.00 in0.0 mm 0.00 in0.0 mm